DLH510 EDDF-SAEZ
Flight info
| Callsign | DLH510 |
|---|---|
| Flight time | N/A |
| Altitude | 31000 |
| Route | ANEKI2L/18 ANEKI Y163 HERBI Y164 MOPAN DCT TUFTA DCT TIS DCT SECHE DCT URUNA P181 NEA L14 ADINO/N0425F230 L14 ELVAR UN975 SNT/N0433F240 UN741 NELSO/N0486F320 N741 ERONI/N0485F330 N741 EDUMO UN741 KEPAS/N0490F340 UN741 MERUD/N0485F350 UN741 NANIK/N0482F360 UN741 IROMA/N0474F380 UN741 GEVMI UM654 BIXAN UN741 UKLEN UL310 VUNEG UM532 CUARA UL324 TOGAL DCT PAGON PAGON7V |
| Aircraft | A343/H-SDE2E3FGHIJ4J5M1RWXY/LB1D1 |
Departure
| Time | 2026-04-16 21:27 |
|---|---|
| Airport | Frankfurt Main Airport (EDDF) |
Arrival
| Time | N/A |
|---|---|
| Airport | Ezeiza International Airport - Ministro Pistarini (SAEZ) |
| Time | Latitude | Longitude | Altitude | Speed | Heading |
|---|---|---|---|---|---|
| 2026-04-16 20:06 | 50.04644 | 8.55943 | 350 ft | 0 kts | 340° |
| 2026-04-16 21:07 | 50.04629 | 8.55952 | 359 ft | 4 kts | 341° |
| 2026-04-16 21:08 | 50.04603 | 8.55966 | 359 ft | 4 kts | 334° |
| 2026-04-16 21:08 | 50.04585 | 8.55986 | 349 ft | 4 kts | 276° |
| 2026-04-16 21:08 | 50.04590 | 8.56014 | 356 ft | 4 kts | 250° |
| 2026-04-16 21:08 | 50.04598 | 8.56051 | 357 ft | 2 kts | 250° |
| 2026-04-16 21:09 | 50.04599 | 8.56053 | 349 ft | 0 kts | 250° |
| 2026-04-16 21:14 | 50.04591 | 8.56027 | 358 ft | 6 kts | 242° |
| 2026-04-16 21:15 | 50.04535 | 8.55966 | 356 ft | 14 kts | 204° |
| 2026-04-16 21:15 | 50.04443 | 8.55918 | 352 ft | 13 kts | 196° |
| 2026-04-16 21:15 | 50.04356 | 8.55923 | 357 ft | 12 kts | 163° |
| 2026-04-16 21:15 | 50.04319 | 8.55944 | 349 ft | 0 kts | 160° |
| 2026-04-16 21:17 | 50.04312 | 8.55948 | 358 ft | 4 kts | 160° |
| 2026-04-16 21:17 | 50.04263 | 8.55944 | 352 ft | 10 kts | 205° |
| 2026-04-16 21:17 | 50.04214 | 8.55832 | 355 ft | 16 kts | 249° |
| 2026-04-16 21:18 | 50.04168 | 8.55643 | 359 ft | 21 kts | 249° |
| 2026-04-16 21:18 | 50.04110 | 8.55400 | 358 ft | 26 kts | 250° |
| 2026-04-16 21:18 | 50.04041 | 8.55111 | 354 ft | 30 kts | 249° |
| 2026-04-16 21:18 | 50.03970 | 8.54815 | 358 ft | 28 kts | 250° |
| 2026-04-16 21:19 | 50.03905 | 8.54541 | 356 ft | 26 kts | 250° |
| 2026-04-16 21:19 | 50.03828 | 8.54302 | 358 ft | 24 kts | 236° |
| 2026-04-16 21:19 | 50.03765 | 8.54079 | 359 ft | 22 kts | 250° |
| 2026-04-16 21:19 | 50.03715 | 8.53869 | 359 ft | 20 kts | 249° |
| 2026-04-16 21:20 | 50.03669 | 8.53676 | 359 ft | 18 kts | 249° |
| 2026-04-16 21:20 | 50.03620 | 8.53482 | 356 ft | 20 kts | 250° |
| 2026-04-16 21:20 | 50.03573 | 8.53285 | 359 ft | 19 kts | 250° |
| 2026-04-16 21:20 | 50.03530 | 8.53105 | 358 ft | 17 kts | 249° |
| 2026-04-16 21:21 | 50.03491 | 8.52948 | 357 ft | 13 kts | 249° |
| 2026-04-16 21:21 | 50.03468 | 8.52857 | 355 ft | 7 kts | 246° |
| 2026-04-16 21:21 | 50.03466 | 8.52851 | 358 ft | 0 kts | 246° |
| 2026-04-16 21:22 | 50.03465 | 8.52849 | 358 ft | 1 kts | 246° |
| 2026-04-16 21:22 | 50.03455 | 8.52813 | 349 ft | 6 kts | 247° |
| 2026-04-16 21:23 | 50.03435 | 8.52736 | 359 ft | 9 kts | 248° |
| 2026-04-16 21:23 | 50.03399 | 8.52631 | 359 ft | 13 kts | 227° |
| 2026-04-16 21:23 | 50.03315 | 8.52595 | 358 ft | 12 kts | 180° |
| 2026-04-16 21:23 | 50.03297 | 8.52595 | 351 ft | 0 kts | 180° |
| 2026-04-16 21:26 | 50.03281 | 8.52595 | 358 ft | 14 kts | 180° |
| 2026-04-16 21:26 | 50.02982 | 8.52598 | 357 ft | 71 kts | 179° |
| 2026-04-16 21:26 | 50.02305 | 8.52605 | 358 ft | 122 kts | 179° |
| 2026-04-16 21:26 | 50.01311 | 8.52616 | 349 ft | 163 kts | 179° |
| 2026-04-16 21:27 | 50.00069 | 8.52630 | 557 ft | 184 kts | 179° |
| 2026-04-16 21:27 | 49.98790 | 8.52675 | 1109 ft | 185 kts | 179° |
| 2026-04-16 21:27 | 49.97477 | 8.52746 | 1587 ft | 194 kts | 178° |
| 2026-04-16 21:27 | 49.96064 | 8.52849 | 1727 ft | 212 kts | 177° |
| 2026-04-16 21:28 | 49.94521 | 8.53005 | 1876 ft | 232 kts | 176° |
| 2026-04-16 21:28 | 49.92855 | 8.53183 | 2152 ft | 247 kts | 176° |
| 2026-04-16 21:28 | 49.91085 | 8.53343 | 2472 ft | 263 kts | 178° |
| 2026-04-16 21:28 | 49.89212 | 8.53454 | 2861 ft | 274 kts | 178° |
| 2026-04-16 21:29 | 49.87285 | 8.53561 | 3391 ft | 280 kts | 178° |
| 2026-04-16 21:29 | 49.85325 | 8.53677 | 3966 ft | 284 kts | 178° |
| 2026-04-16 21:29 | 49.83363 | 8.53800 | 4569 ft | 287 kts | 178° |
| 2026-04-16 21:29 | 49.81358 | 8.53934 | 5186 ft | 289 kts | 178° |
| 2026-04-16 21:30 | 49.79337 | 8.54074 | 5778 ft | 292 kts | 178° |
| 2026-04-16 21:30 | 49.77296 | 8.54044 | 6370 ft | 294 kts | 185° |
| 2026-04-16 21:30 | 49.75246 | 8.53788 | 6955 ft | 296 kts | 186° |
| 2026-04-16 21:30 | 49.73187 | 8.53504 | 7508 ft | 299 kts | 186° |
| 2026-04-16 21:31 | 49.71110 | 8.53223 | 8094 ft | 300 kts | 186° |
| 2026-04-16 21:31 | 49.69022 | 8.52942 | 8632 ft | 302 kts | 186° |
| 2026-04-16 21:31 | 49.66916 | 8.52661 | 9150 ft | 305 kts | 186° |
| 2026-04-16 21:31 | 49.64797 | 8.52381 | 9662 ft | 307 kts | 186° |
| 2026-04-16 21:32 | 49.62658 | 8.52098 | 10153 ft | 310 kts | 186° |
| 2026-04-16 21:32 | 49.60492 | 8.51811 | 10523 ft | 317 kts | 186° |
| 2026-04-16 21:32 | 49.58259 | 8.51515 | 10741 ft | 328 kts | 186° |
| 2026-04-16 21:32 | 49.55914 | 8.51205 | 10958 ft | 339 kts | 186° |
| 2026-04-16 21:33 | 49.53559 | 8.50896 | 11167 ft | 350 kts | 186° |
| 2026-04-16 21:33 | 49.51091 | 8.50572 | 11379 ft | 361 kts | 186° |
| 2026-04-16 21:33 | 49.48557 | 8.50240 | 11635 ft | 369 kts | 186° |
| 2026-04-16 21:33 | 49.45975 | 8.49903 | 12014 ft | 374 kts | 186° |
| 2026-04-16 21:34 | 49.43364 | 8.49562 | 12440 ft | 378 kts | 186° |
| 2026-04-16 21:34 | 49.40733 | 8.49218 | 12865 ft | 381 kts | 186° |
| 2026-04-16 21:34 | 49.38077 | 8.48871 | 13285 ft | 385 kts | 186° |
| 2026-04-16 21:34 | 49.35404 | 8.48522 | 13711 ft | 388 kts | 187° |
| 2026-04-16 21:35 | 49.32701 | 8.48170 | 14131 ft | 391 kts | 187° |
| 2026-04-16 21:35 | 49.29999 | 8.47818 | 14557 ft | 394 kts | 187° |
| 2026-04-16 21:35 | 49.27261 | 8.47461 | 14992 ft | 397 kts | 187° |
| 2026-04-16 21:35 | 49.24495 | 8.47101 | 15406 ft | 400 kts | 187° |
| 2026-04-16 21:36 | 49.21715 | 8.46739 | 15798 ft | 403 kts | 187° |
| 2026-04-16 21:36 | 49.18908 | 8.46374 | 16188 ft | 406 kts | 187° |